Terminal Aerodrome Forecast
Issued by NWS

Home | Current Version | Previous Version | Graphics & Text | Print | Product List | Glossary On
Versions: 1 2 3 4 5 6 7 8 9 10 11 12 13 14 15 16 17 18 19 20 21 22
080
FTUS43 KGRB 161129
TAFAUW
TAF
KAUW 161129Z 1612/1712 VRB03KT P6SM BKN200
      TEMPO 1612/1615 5SM BR
     FM161500 VRB03KT P6SM BKN150
     FM162300 11003KT 4SM -SNPL OVC035
     FM170200 09004KT 3SM -SNPL BR OVC014
     FM170300 09005KT 2SM -FZRASNPL BR OVC009
     FM170500 06005KT 1 1/2SM -FZRAPL BR OVC005=

USA.gov is the U.S. government's official web portal to all federal, state and local government web resources and services.